Time;durP1;ratioP1;P1;durP2;ratioP2;P2;SDS_P1;SDS_P2;PMS_P1;PMS_P2;Temp;Humidity;BMP_temperature;BMP_pressure;BME280_temperature;BME280_humidity;BME280_pressure;Samples;Min_cycle;Max_cycle;Signal;HPM_P1;HPM_P2
2023/10/20 00:00:57;;;;;;;28.58;23.42;;;;;;;;;;5042920;28;20195;-66
2023/10/20 00:03:24;;;;;;;26.88;21.50;;;;;;;;;;5043288;28;20256;-64
2023/10/20 00:05:50;;;;;;;22.95;19.90;;;;;;;;;;5040729;28;20680;-65
2023/10/20 00:08:18;;;;;;;30.80;22.55;;;;;;;;;;5042794;28;20234;-66
2023/10/20 00:10:44;;;;;;;27.00;20.23;;;;;;;;;;5041899;28;20273;-65
2023/10/20 00:13:11;;;;;;;26.77;18.65;;;;;;;;;;5040756;28;20202;-65
2023/10/20 00:15:37;;;;;;;25.98;19.30;;;;;;;;;;5042909;28;20242;-64
2023/10/20 00:21:07;;;;;;;25.65;19.52;;;;;;;;;;5041480;28;20177;-66
2023/10/20 00:23:36;;;;;;;26.30;19.38;;;;;;;;;;5041170;28;20190;-63
2023/10/20 00:26:03;;;;;;;21.17;17.38;;;;;;;;;;5042763;28;20207;-65
2023/10/20 00:28:29;;;;;;;26.73;19.23;;;;;;;;;;5041634;28;20214;-65
2023/10/20 00:30:55;;;;;;;24.52;18.15;;;;;;;;;;5042417;28;20258;-65
2023/10/20 00:33:22;;;;;;;24.77;17.65;;;;;;;;;;5040734;28;20198;-64
2023/10/20 00:35:48;;;;;;;24.35;18.02;;;;;;;;;;5041762;28;20203;-65
2023/10/20 00:38:15;;;;;;;23.00;17.98;;;;;;;;;;5042442;28;20226;-63
2023/10/20 00:40:47;;;;;;;28.42;18.55;;;;;;;;;;5042722;28;20211;-66
2023/10/20 00:43:13;;;;;;;28.15;21.25;;;;;;;;;;5041139;28;20203;-66
2023/10/20 00:45:41;;;;;;;26.58;18.13;;;;;;;;;;5042833;28;20290;-63
2023/10/20 00:48:08;;;;;;;25.42;20.30;;;;;;;;;;5041994;28;20750;-66
2023/10/20 00:50:34;;;;;;;23.63;19.98;;;;;;;;;;5041646;28;20296;-64
2023/10/20 00:53:01;;;;;;;25.42;21.20;;;;;;;;;;5042620;28;20206;-65
2023/10/20 00:55:30;;;;;;;29.63;23.55;;;;;;;;;;5041879;28;20689;-63
2023/10/20 00:57:58;;;;;;;30.60;22.05;;;;;;;;;;5042794;28;20206;-64
2023/10/20 01:00:24;;;;;;;26.42;19.77;;;;;;;;;;5042863;28;20677;-65
2023/10/20 01:02:52;;;;;;;32.65;20.65;;;;;;;;;;5041038;28;20211;-63
2023/10/20 01:05:22;;;;;;;21.80;17.05;;;;;;;;;;5042660;28;20238;-61
2023/10/20 01:07:48;;;;;;;26.42;19.70;;;;;;;;;;5042409;28;20206;-67
2023/10/20 01:10:15;;;;;;;29.30;20.05;;;;;;;;;;5041955;28;20677;-65
2023/10/20 01:12:41;;;;;;;27.55;19.98;;;;;;;;;;5040971;28;20724;-67
2023/10/20 01:15:10;;;;;;;23.17;18.15;;;;;;;;;;5042702;28;20789;-65
2023/10/20 01:17:36;;;;;;;20.35;16.33;;;;;;;;;;5042348;28;20203;-65
2023/10/20 01:20:04;;;;;;;27.50;17.08;;;;;;;;;;5041835;28;20592;-62
2023/10/20 01:22:30;;;;;;;21.73;18.27;;;;;;;;;;5044268;28;20215;-66
2023/10/20 01:24:58;;;;;;;23.80;18.80;;;;;;;;;;5043962;28;20776;-66
2023/10/20 01:27:24;;;;;;;22.13;15.45;;;;;;;;;;5046299;28;20210;-65
2023/10/20 01:29:51;;;;;;;20.42;16.10;;;;;;;;;;5045657;28;20234;-63
2023/10/20 01:32:18;;;;;;;24.85;17.58;;;;;;;;;;5046288;28;20223;-64
2023/10/20 01:34:44;;;;;;;21.80;16.63;;;;;;;;;;5045998;28;20720;-65
2023/10/20 01:37:12;;;;;;;18.88;15.85;;;;;;;;;;5045071;28;20253;-65
2023/10/20 01:39:38;;;;;;;22.63;15.82;;;;;;;;;;5045675;28;20712;-65
2023/10/20 01:42:07;;;;;;;23.90;14.38;;;;;;;;;;5045580;28;20222;-66
2023/10/20 01:44:33;;;;;;;21.02;14.05;;;;;;;;;;5045813;28;20203;-63
2023/10/20 01:47:00;;;;;;;23.58;16.27;;;;;;;;;;5044043;28;20961;-66
2023/10/20 01:49:27;;;;;;;17.00;14.48;;;;;;;;;;5046275;28;20211;-67
2023/10/20 01:51:54;;;;;;;16.02;13.18;;;;;;;;;;5045412;28;20227;-64
2023/10/20 01:54:20;;;;;;;22.65;17.25;;;;;;;;;;5046156;28;20249;-64
2023/10/20 01:56:46;;;;;;;23.33;15.30;;;;;;;;;;5045346;28;20211;-64
2023/10/20 01:59:15;;;;;;;18.75;15.70;;;;;;;;;;5045888;28;20203;-62
2023/10/20 02:01:42;;;;;;;21.20;15.52;;;;;;;;;;5045647;28;20587;-65
2023/10/20 02:04:08;;;;;;;21.65;15.55;;;;;;;;;;5045719;28;20268;-63
2023/10/20 02:06:35;;;;;;;22.60;17.27;;;;;;;;;;5045269;28;20218;-61
2023/10/20 02:09:01;;;;;;;37.38;21.80;;;;;;;;;;5045372;28;20199;-65
2023/10/20 02:11:28;;;;;;;27.23;18.73;;;;;;;;;;5045834;28;20237;-66
2023/10/20 02:13:56;;;;;;;30.88;19.30;;;;;;;;;;5045373;28;20252;-65
2023/10/20 02:16:25;;;;;;;21.80;16.77;;;;;;;;;;5044824;28;20195;-64
2023/10/20 02:18:51;;;;;;;26.10;19.58;;;;;;;;;;5044575;28;20290;-65
2023/10/20 02:21:18;;;;;;;25.25;18.45;;;;;;;;;;5046522;28;20195;-64
2023/10/20 02:23:44;;;;;;;26.13;18.42;;;;;;;;;;5045699;28;20304;-64
2023/10/20 02:26:11;;;;;;;27.13;18.88;;;;;;;;;;5044310;28;20659;-63
2023/10/20 02:28:37;;;;;;;21.92;16.92;;;;;;;;;;5043615;28;20260;-64
2023/10/20 02:31:11;;;;;;;23.95;18.25;;;;;;;;;;5044445;28;20222;-64
2023/10/20 02:33:39;;;;;;;26.55;17.33;;;;;;;;;;5043743;28;20227;-66
2023/10/20 02:36:05;;;;;;;25.15;18.20;;;;;;;;;;5044481;28;20252;-66
2023/10/20 02:38:32;;;;;;;24.13;17.02;;;;;;;;;;5044833;28;20230;-65
2023/10/20 02:40:58;;;;;;;22.40;16.58;;;;;;;;;;5044806;28;20227;-66
2023/10/20 02:43:25;;;;;;;24.17;16.35;;;;;;;;;;5045613;28;20264;-66
2023/10/20 02:45:52;;;;;;;20.85;15.77;;;;;;;;;;5044587;28;20207;-64
2023/10/20 02:48:19;;;;;;;20.75;15.43;;;;;;;;;;5045386;28;20210;-63
2023/10/20 02:50:46;;;;;;;21.27;15.15;;;;;;;;;;5045451;28;20226;-65
2023/10/20 02:53:13;;;;;;;18.70;15.35;;;;;;;;;;5045699;28;20261;-64
2023/10/20 02:55:40;;;;;;;28.70;16.40;;;;;;;;;;5044877;28;20214;-64
2023/10/20 02:58:07;;;;;;;22.85;15.65;;;;;;;;;;5044924;28;20290;-63
2023/10/20 03:00:34;;;;;;;23.83;15.18;;;;;;;;;;5045656;28;20199;-64
2023/10/20 03:03:00;;;;;;;22.05;14.75;;;;;;;;;;5044577;28;20286;-64
2023/10/20 03:05:29;;;;;;;23.88;15.10;;;;;;;;;;5044466;28;20234;-66
2023/10/20 03:07:57;;;;;;;23.45;12.77;;;;;;;;;;5044735;28;20198;-64
2023/10/20 03:10:23;;;;;;;16.20;13.40;;;;;;;;;;5045204;28;20708;-64
2023/10/20 03:12:50;;;;;;;17.90;12.43;;;;;;;;;;5044752;28;20772;-63
2023/10/20 03:15:16;;;;;;;20.20;12.52;;;;;;;;;;5045269;28;20242;-65
2023/10/20 03:17:43;;;;;;;17.40;12.00;;;;;;;;;;5044619;28;20231;-65
2023/10/20 03:20:14;;;;;;;19.08;13.77;;;;;;;;;;5044650;28;20297;-66
2023/10/20 03:22:41;;;;;;;16.27;12.88;;;;;;;;;;5045694;28;20287;-63
2023/10/20 03:25:10;;;;;;;16.55;13.68;;;;;;;;;;5042026;28;20227;-65
2023/10/20 03:27:35;;;;;;;17.20;13.18;;;;;;;;;;5043810;28;20199;-65
2023/10/20 03:30:02;;;;;;;18.05;13.25;;;;;;;;;;5044554;28;20591;-63
2023/10/20 03:32:28;;;;;;;20.15;14.00;;;;;;;;;;5043702;28;20251;-64
2023/10/20 03:34:55;;;;;;;37.13;24.33;;;;;;;;;;5040387;28;20215;-64
2023/10/20 03:37:22;;;;;;;23.42;16.23;;;;;;;;;;5044413;28;20202;-65
2023/10/20 03:39:49;;;;;;;27.30;20.02;;;;;;;;;;5044826;28;20300;-66
2023/10/20 03:42:17;;;;;;;31.58;22.98;;;;;;;;;;5041899;28;20228;-65
2023/10/20 03:44:46;;;;;;;23.75;18.42;;;;;;;;;;5041161;28;20209;-64
2023/10/20 03:47:13;;;;;;;23.00;16.60;;;;;;;;;;5043631;28;20215;-65
2023/10/20 03:49:41;;;;;;;22.77;16.35;;;;;;;;;;5042032;28;20202;-64
2023/10/20 03:52:11;;;;;;;20.85;16.08;;;;;;;;;;5040165;28;20233;-63
2023/10/20 03:54:38;;;;;;;25.23;17.15;;;;;;;;;;5044890;28;20598;-64
2023/10/20 03:57:05;;;;;;;23.20;15.63;;;;;;;;;;5042977;28;20209;-64
2023/10/20 03:59:33;;;;;;;20.95;17.08;;;;;;;;;;5043087;28;20215;-65
2023/10/20 04:01:59;;;;;;;21.85;15.45;;;;;;;;;;5043789;28;20202;-66
2023/10/20 04:04:25;;;;;;;23.52;16.45;;;;;;;;;;5041308;28;20270;-65
2023/10/20 04:06:52;;;;;;;18.98;15.05;;;;;;;;;;5040813;28;20261;-63
2023/10/20 04:09:18;;;;;;;16.15;14.38;;;;;;;;;;5043266;28;20203;-65
2023/10/20 04:11:45;;;;;;;20.85;14.95;;;;;;;;;;5043029;28;20241;-65
2023/10/20 04:14:12;;;;;;;17.52;14.50;;;;;;;;;;5043860;28;20257;-64
2023/10/20 04:16:41;;;;;;;22.83;17.85;;;;;;;;;;5044261;28;20207;-66
2023/10/20 04:19:09;;;;;;;88.90;50.53;;;;;;;;;;5041571;28;20211;-64
2023/10/20 04:21:36;;;;;;;47.08;29.40;;;;;;;;;;5043488;28;20265;-64
2023/10/20 04:24:03;;;;;;;31.55;19.83;;;;;;;;;;5039729;28;20222;-66
2023/10/20 04:26:31;;;;;;;27.80;16.13;;;;;;;;;;5043485;28;20257;-66
2023/10/20 04:29:08;;;;;;;20.65;15.40;;;;;;;;;;5043844;28;20210;-66
2023/10/20 04:42:56;;;;;;;37.53;22.95;;;;;;;;;;5040642;28;20405;-65
2023/10/20 04:49:00;;;;;;;20.33;16.00;;;;;;;;;;5000690;28;20368;-67
2023/10/20 04:51:27;;;;;;;20.52;13.65;;;;;;;;;;5042992;28;20202;-64
2023/10/20 04:53:54;;;;;;;20.38;13.60;;;;;;;;;;5042261;28;20219;-65
2023/10/20 04:56:39;;;;;;;19.95;14.02;;;;;;;;;;5040205;28;20624;-63
2023/10/20 04:59:09;;;;;;;18.55;14.52;;;;;;;;;;5048010;28;20198;-66
2023/10/20 05:01:41;;;;;;;18.95;15.07;;;;;;;;;;5046539;28;20306;-63
2023/10/20 05:04:14;;;;;;;17.45;13.85;;;;;;;;;;5044488;28;20767;-66
2023/10/20 05:06:44;;;;;;;18.25;13.80;;;;;;;;;;5046537;28;20211;-66
2023/10/20 05:09:13;;;;;;;20.23;14.50;;;;;;;;;;5046144;28;20769;-66
2023/10/20 05:11:40;;;;;;;19.67;13.35;;;;;;;;;;5047403;28;20258;-64
2023/10/20 05:14:06;;;;;;;39.00;17.52;;;;;;;;;;5046332;28;20207;-66
2023/10/20 05:16:33;;;;;;;25.75;14.20;;;;;;;;;;5047258;28;20202;-66
2023/10/20 05:19:02;;;;;;;16.83;13.95;;;;;;;;;;5047331;28;20207;-67
2023/10/20 05:21:29;;;;;;;25.73;15.55;;;;;;;;;;5044666;28;20254;-64
2023/10/20 05:23:56;;;;;;;23.42;16.23;;;;;;;;;;5043699;28;20262;-64
2023/10/20 05:26:23;;;;;;;26.17;16.27;;;;;;;;;;5042661;28;20199;-64
2023/10/20 05:28:50;;;;;;;19.95;15.02;;;;;;;;;;5046978;28;20207;-66
2023/10/20 05:31:22;;;;;;;23.63;16.50;;;;;;;;;;5046054;28;20223;-66
2023/10/20 05:33:48;;;;;;;29.35;15.93;;;;;;;;;;5044305;28;20247;-67
2023/10/20 05:36:14;;;;;;;29.10;17.40;;;;;;;;;;5045434;28;20631;-67
2023/10/20 05:38:41;;;;;;;23.55;15.63;;;;;;;;;;5046235;28;20685;-65
2023/10/20 05:41:09;;;;;;;26.27;15.15;;;;;;;;;;5044677;28;20199;-67
2023/10/20 05:43:35;;;;;;;20.08;13.93;;;;;;;;;;5044418;28;20200;-65
2023/10/20 05:46:02;;;;;;;31.45;14.57;;;;;;;;;;5045922;28;20214;-63
2023/10/20 05:48:28;;;;;;;19.20;13.20;;;;;;;;;;5046374;28;20713;-67
2023/10/20 05:50:55;;;;;;;30.55;15.10;;;;;;;;;;5045687;28;20214;-66
2023/10/20 05:53:22;;;;;;;20.45;14.18;;;;;;;;;;5041503;28;20318;-66
2023/10/20 05:55:48;;;;;;;22.67;14.07;;;;;;;;;;5045282;28;20349;-66
2023/10/20 05:58:16;;;;;;;17.40;13.35;;;;;;;;;;5044415;28;20633;-67
2023/10/20 06:00:42;;;;;;;21.27;14.82;;;;;;;;;;5045377;28;20215;-65
2023/10/20 06:03:09;;;;;;;20.10;14.73;;;;;;;;;;5045927;28;20253;-68
2023/10/20 06:05:35;;;;;;;21.02;13.85;;;;;;;;;;5044489;28;20238;-65
2023/10/20 06:08:02;;;;;;;26.42;13.82;;;;;;;;;;5043871;28;20207;-66
2023/10/20 06:10:29;;;;;;;20.85;15.43;;;;;;;;;;5043085;28;20239;-66
2023/10/20 06:12:57;;;;;;;17.88;14.68;;;;;;;;;;5045277;28;20234;-67
2023/10/20 06:15:25;;;;;;;25.40;15.23;;;;;;;;;;5044690;28;20607;-68
2023/10/20 06:17:51;;;;;;;25.70;16.10;;;;;;;;;;5044122;28;20199;-65
2023/10/20 06:20:18;;;;;;;21.73;15.35;;;;;;;;;;5045725;28;20207;-66
2023/10/20 06:22:45;;;;;;;25.23;14.75;;;;;;;;;;5045090;28;20672;-66
2023/10/20 06:25:13;;;;;;;19.23;15.35;;;;;;;;;;5043758;28;20229;-63
2023/10/20 06:27:40;;;;;;;16.02;14.27;;;;;;;;;;5042370;28;20229;-67
2023/10/20 06:30:14;;;;;;;19.38;14.20;;;;;;;;;;5045562;28;20195;-69
2023/10/20 06:32:43;;;;;;;19.65;14.88;;;;;;;;;;5045234;28;20301;-67
2023/10/20 06:35:12;;;;;;;26.98;15.05;;;;;;;;;;5044600;28;20284;-68
2023/10/20 06:37:42;;;;;;;21.65;15.30;;;;;;;;;;5044709;28;20203;-67
2023/10/20 06:40:12;;;;;;;20.13;14.32;;;;;;;;;;5045669;28;20715;-68
2023/10/20 06:42:38;;;;;;;18.98;14.48;;;;;;;;;;5043716;28;20698;-66
2023/10/20 06:45:05;;;;;;;21.40;15.27;;;;;;;;;;5043998;28;20195;-68
2023/10/20 06:47:32;;;;;;;23.92;14.25;;;;;;;;;;5042851;28;20199;-68
2023/10/20 06:50:00;;;;;;;22.70;16.35;;;;;;;;;;5044999;28;20665;-68
2023/10/20 06:52:27;;;;;;;16.08;13.93;;;;;;;;;;5045090;28;20302;-68
2023/10/20 06:54:56;;;;;;;18.60;13.27;;;;;;;;;;5041044;28;20209;-67
2023/10/20 06:57:22;;;;;;;19.63;14.30;;;;;;;;;;5044981;28;20289;-64
2023/10/20 06:59:50;;;;;;;20.17;13.23;;;;;;;;;;5044840;28;20586;-65
2023/10/20 07:02:16;;;;;;;15.88;13.15;;;;;;;;;;5045112;28;20230;-67
2023/10/20 07:04:43;;;;;;;17.35;13.25;;;;;;;;;;5044913;28;20238;-66
2023/10/20 07:07:13;;;;;;;22.83;13.82;;;;;;;;;;5043157;28;20203;-68
2023/10/20 07:09:40;;;;;;;16.65;14.90;;;;;;;;;;5044459;28;20280;-67
2023/10/20 07:12:07;;;;;;;19.15;14.02;;;;;;;;;;5042622;28;20640;-67
2023/10/20 07:14:34;;;;;;;26.42;15.00;;;;;;;;;;5043772;28;20223;-70
2023/10/20 07:17:03;;;;;;;20.05;14.38;;;;;;;;;;5042539;28;20311;-67
2023/10/20 07:19:30;;;;;;;21.83;15.15;;;;;;;;;;5043422;28;20770;-69
2023/10/20 07:21:56;;;;;;;29.10;17.27;;;;;;;;;;5042646;28;20893;-67
2023/10/20 07:24:24;;;;;;;26.75;18.38;;;;;;;;;;5044070;28;20662;-68
2023/10/20 07:26:51;;;;;;;20.58;16.27;;;;;;;;;;5040165;28;20250;-64
2023/10/20 07:29:18;;;;;;;28.70;17.77;;;;;;;;;;5041323;28;20214;-71
2023/10/20 07:31:47;;;;;;;24.02;16.83;;;;;;;;;;5044524;28;20313;-68
2023/10/20 07:34:13;;;;;;;23.45;16.63;;;;;;;;;;5042073;28;20716;-68
2023/10/20 07:36:40;;;;;;;26.55;19.02;;;;;;;;;;5043144;28;20627;-67
2023/10/20 07:39:08;;;;;;;26.65;18.50;;;;;;;;;;5042833;28;20222;-68
2023/10/20 07:41:36;;;;;;;24.33;17.20;;;;;;;;;;5043300;28;20214;-67
2023/10/20 07:44:03;;;;;;;23.75;17.08;;;;;;;;;;5045031;28;20261;-67
2023/10/20 07:46:31;;;;;;;21.45;16.02;;;;;;;;;;5045168;28;20206;-67
2023/10/20 07:48:57;;;;;;;24.77;16.75;;;;;;;;;;5042835;28;20762;-67
2023/10/20 07:51:24;;;;;;;24.83;16.75;;;;;;;;;;5044685;28;20226;-66
2023/10/20 07:53:51;;;;;;;27.13;17.90;;;;;;;;;;5044165;28;20310;-65
2023/10/20 07:56:17;;;;;;;29.00;17.08;;;;;;;;;;5043772;28;20230;-67
2023/10/20 07:58:45;;;;;;;30.48;17.02;;;;;;;;;;5040850;28;20222;-69
2023/10/20 08:01:11;;;;;;;32.08;17.20;;;;;;;;;;5041642;28;20226;-68
2023/10/20 08:03:38;;;;;;;21.10;15.15;;;;;;;;;;5043037;28;20218;-69
2023/10/20 08:06:05;;;;;;;16.05;13.32;;;;;;;;;;5040390;28;20201;-68
2023/10/20 08:08:32;;;;;;;19.55;14.65;;;;;;;;;;5044354;28;20210;-68
2023/10/20 08:10:59;;;;;;;22.63;14.95;;;;;;;;;;5042961;28;21348;-66
2023/10/20 08:13:25;;;;;;;15.88;13.77;;;;;;;;;;5038768;28;20226;-66
2023/10/20 08:15:54;;;;;;;17.92;11.27;;;;;;;;;;5044766;28;20211;-67
2023/10/20 08:18:20;;;;;;;15.80;10.70;;;;;;;;;;5039210;28;20686;-68
2023/10/20 08:20:48;;;;;;;15.57;10.98;;;;;;;;;;5041902;28;20210;-69
2023/10/20 08:23:14;;;;;;;17.95;10.73;;;;;;;;;;5042983;28;20211;-69
2023/10/20 08:25:41;;;;;;;13.10;9.80;;;;;;;;;;5040426;28;20227;-70
2023/10/20 08:28:08;;;;;;;16.75;10.38;;;;;;;;;;5043674;28;20234;-68
2023/10/20 08:30:35;;;;;;;13.23;10.38;;;;;;;;;;5040792;28;20203;-67
2023/10/20 08:33:03;;;;;;;24.08;10.60;;;;;;;;;;5042723;28;20226;-68
2023/10/20 08:35:30;;;;;;;14.77;9.07;;;;;;;;;;5035441;28;20214;-65
2023/10/20 08:37:57;;;;;;;18.27;10.13;;;;;;;;;;5044682;28;20317;-67
2023/10/20 08:40:23;;;;;;;13.18;8.95;;;;;;;;;;5043636;28;20199;-67
2023/10/20 08:42:51;;;;;;;15.38;8.25;;;;;;;;;;5043008;28;20212;-68
2023/10/20 08:45:18;;;;;;;8.55;7.10;;;;;;;;;;5043793;28;20206;-68
2023/10/20 08:47:45;;;;;;;10.77;7.20;;;;;;;;;;5044334;28;20233;-68
2023/10/20 08:50:13;;;;;;;11.48;9.63;;;;;;;;;;5040175;28;20701;-67
2023/10/20 08:52:41;;;;;;;13.20;7.88;;;;;;;;;;5042735;28;20311;-66
2023/10/20 08:55:08;;;;;;;17.08;8.18;;;;;;;;;;5042243;28;20229;-65
2023/10/20 08:57:34;;;;;;;16.30;8.15;;;;;;;;;;5043873;28;20774;-67
2023/10/20 09:00:01;;;;;;;10.77;8.38;;;;;;;;;;5041214;28;20249;-69
2023/10/20 09:02:36;;;;;;;16.73;8.48;;;;;;;;;;5043534;28;20203;-67
2023/10/20 09:05:02;;;;;;;16.10;9.18;;;;;;;;;;5042514;28;20252;-69
2023/10/20 09:07:31;;;;;;;11.38;8.60;;;;;;;;;;5043267;28;20255;-68
2023/10/20 09:09:57;;;;;;;19.70;9.15;;;;;;;;;;5042637;28;20247;-68
2023/10/20 09:12:23;;;;;;;9.10;8.13;;;;;;;;;;5043231;28;20341;-68
2023/10/20 09:14:50;;;;;;;15.50;8.27;;;;;;;;;;5043568;28;20227;-70
2023/10/20 09:17:21;;;;;;;16.63;8.98;;;;;;;;;;5042904;28;20199;-70
2023/10/20 09:19:48;;;;;;;15.80;9.80;;;;;;;;;;5043901;28;20195;-66
2023/10/20 09:22:14;;;;;;;19.92;12.27;;;;;;;;;;5042354;28;20303;-64
2023/10/20 09:24:43;;;;;;;13.45;10.48;;;;;;;;;;5038223;28;20196;-64
2023/10/20 09:27:09;;;;;;;17.77;13.02;;;;;;;;;;5040258;28;20254;-64
2023/10/20 09:29:37;;;;;;;16.15;8.13;;;;;;;;;;5042978;28;20195;-64
2023/10/20 09:32:04;;;;;;;12.52;9.90;;;;;;;;;;5041354;28;20318;-66
2023/10/20 09:34:31;;;;;;;14.40;9.18;;;;;;;;;;5040483;28;20254;-63
2023/10/20 09:36:58;;;;;;;17.73;9.95;;;;;;;;;;5040539;28;20296;-63
2023/10/20 09:39:30;;;;;;;19.95;9.30;;;;;;;;;;5040388;28;20206;-64
2023/10/20 09:42:02;;;;;;;13.27;9.20;;;;;;;;;;5037405;28;20249;-62
2023/10/20 09:44:35;;;;;;;18.48;9.48;;;;;;;;;;5043898;28;20337;-63
2023/10/20 09:47:10;;;;;;;15.18;9.05;;;;;;;;;;5042647;28;20294;-64
2023/10/20 09:49:39;;;;;;;10.70;9.23;;;;;;;;;;5041831;28;20277;-62
2023/10/20 09:52:05;;;;;;;15.18;9.63;;;;;;;;;;5043919;28;20202;-63
2023/10/20 09:54:32;;;;;;;11.35;8.48;;;;;;;;;;5045055;28;20230;-64
2023/10/20 09:57:01;;;;;;;18.73;9.57;;;;;;;;;;5043835;28;20199;-64
2023/10/20 09:59:27;;;;;;;15.88;8.75;;;;;;;;;;5043463;28;20703;-63
2023/10/20 10:01:54;;;;;;;17.63;8.77;;;;;;;;;;5045341;28;20280;-64
2023/10/20 10:04:24;;;;;;;20.20;8.43;;;;;;;;;;5043720;28;20720;-63
2023/10/20 10:06:50;;;;;;;13.60;8.20;;;;;;;;;;5042679;28;20245;-64
2023/10/20 10:09:18;;;;;;;14.68;7.28;;;;;;;;;;5044449;28;20238;-66
2023/10/20 10:11:45;;;;;;;16.42;7.65;;;;;;;;;;5043977;28;20226;-63
2023/10/20 10:14:20;;;;;;;14.85;8.23;;;;;;;;;;5042503;28;20258;-64
2023/10/20 10:16:50;;;;;;;18.90;7.80;;;;;;;;;;5043211;28;20209;-66
2023/10/20 10:19:18;;;;;;;14.00;7.72;;;;;;;;;;5044082;28;20203;-65
2023/10/20 10:21:49;;;;;;;12.55;8.05;;;;;;;;;;5046062;28;20207;-64
2023/10/20 10:24:15;;;;;;;16.38;9.07;;;;;;;;;;5042045;28;20266;-64
2023/10/20 10:26:46;;;;;;;15.85;9.07;;;;;;;;;;5043983;28;20265;-63
2023/10/20 10:29:12;;;;;;;13.10;8.02;;;;;;;;;;5042886;28;20233;-64
2023/10/20 10:31:40;;;;;;;16.98;8.18;;;;;;;;;;5044463;28;20219;-64
2023/10/20 10:34:07;;;;;;;16.17;8.13;;;;;;;;;;5045012;28;20221;-64
2023/10/20 10:36:42;;;;;;;15.60;7.30;;;;;;;;;;5044373;28;20238;-64
2023/10/20 10:39:08;;;;;;;9.15;6.75;;;;;;;;;;5041917;28;20289;-63
2023/10/20 10:41:35;;;;;;;11.63;7.13;;;;;;;;;;5043058;28;20203;-63
2023/10/20 10:44:03;;;;;;;11.75;5.95;;;;;;;;;;5044462;28;20221;-62
2023/10/20 10:46:35;;;;;;;15.77;5.97;;;;;;;;;;5041211;28;20199;-65
2023/10/20 10:49:07;;;;;;;10.02;5.07;;;;;;;;;;5043785;28;20641;-63
2023/10/20 10:51:33;;;;;;;15.23;5.30;;;;;;;;;;5044770;28;20253;-63
2023/10/20 10:54:00;;;;;;;16.25;5.63;;;;;;;;;;5043685;28;20226;-62
2023/10/20 10:56:27;;;;;;;12.23;5.85;;;;;;;;;;5041015;28;20272;-65
2023/10/20 10:58:54;;;;;;;6.75;5.50;;;;;;;;;;5043067;28;20234;-64
2023/10/20 11:01:20;;;;;;;15.75;5.50;;;;;;;;;;5042694;28;20930;-66
2023/10/20 11:03:47;;;;;;;15.18;5.43;;;;;;;;;;5042437;28;20195;-63
2023/10/20 11:06:15;;;;;;;8.10;5.60;;;;;;;;;;5041385;28;20239;-64
2023/10/20 11:08:44;;;;;;;9.30;5.25;;;;;;;;;;5043631;28;20253;-64
2023/10/20 11:11:11;;;;;;;16.00;5.13;;;;;;;;;;5039819;28;20243;-64
2023/10/20 11:13:37;;;;;;;10.90;4.82;;;;;;;;;;5042674;28;20207;-63
2023/10/20 11:16:04;;;;;;;8.77;5.03;;;;;;;;;;5044193;28;20230;-64
2023/10/20 11:18:32;;;;;;;22.10;5.13;;;;;;;;;;5042067;28;20207;-64
2023/10/20 11:21:00;;;;;;;13.00;4.97;;;;;;;;;;5041929;28;20207;-63
2023/10/20 11:23:31;;;;;;;17.67;4.55;;;;;;;;;;5043799;28;20203;-64
2023/10/20 11:25:58;;;;;;;11.43;4.47;;;;;;;;;;5042483;28;20268;-64
2023/10/20 11:28:24;;;;;;;18.08;4.70;;;;;;;;;;5040201;28;20718;-65
2023/10/20 11:30:52;;;;;;;10.88;4.43;;;;;;;;;;5038672;28;20281;-64
2023/10/20 11:33:19;;;;;;;7.15;3.30;;;;;;;;;;5040587;28;20210;-63
2023/10/20 11:35:45;;;;;;;8.98;3.80;;;;;;;;;;5041825;28;20292;-64
2023/10/20 11:38:13;;;;;;;9.80;4.10;;;;;;;;;;5043220;28;20671;-63
2023/10/20 11:40:41;;;;;;;13.95;4.13;;;;;;;;;;5042716;28;20196;-63
2023/10/20 11:43:08;;;;;;;12.23;4.65;;;;;;;;;;5041021;28;20290;-63
2023/10/20 11:45:34;;;;;;;15.55;3.90;;;;;;;;;;5043932;28;20230;-64
2023/10/20 11:48:01;;;;;;;14.68;4.47;;;;;;;;;;5042563;28;20296;-64
2023/10/20 11:50:28;;;;;;;8.82;4.07;;;;;;;;;;5037883;28;20257;-64
2023/10/20 11:52:54;;;;;;;16.30;4.35;;;;;;;;;;5041489;28;20521;-64
2023/10/20 11:55:21;;;;;;;4.90;3.58;;;;;;;;;;5044109;28;20238;-64
2023/10/20 11:57:49;;;;;;;13.00;4.05;;;;;;;;;;5041523;28;20272;-64
2023/10/20 12:00:15;;;;;;;16.08;3.90;;;;;;;;;;5042726;28;20296;-63
2023/10/20 12:02:42;;;;;;;12.73;4.60;;;;;;;;;;5042711;28;20265;-64
2023/10/20 12:05:09;;;;;;;9.77;3.85;;;;;;;;;;5040889;28;20199;-64
2023/10/20 12:07:35;;;;;;;9.00;4.10;;;;;;;;;;5038518;28;20203;-63
2023/10/20 12:10:04;;;;;;;10.73;4.25;;;;;;;;;;5039011;28;20227;-63
2023/10/20 12:12:31;;;;;;;11.18;4.28;;;;;;;;;;5041923;28;20217;-64
2023/10/20 12:14:59;;;;;;;11.93;3.70;;;;;;;;;;5041887;28;20228;-64
2023/10/20 12:17:26;;;;;;;9.40;3.60;;;;;;;;;;5040016;28;20199;-65
2023/10/20 12:19:52;;;;;;;10.05;3.10;;;;;;;;;;5042476;28;20265;-65
2023/10/20 12:22:19;;;;;;;9.38;2.83;;;;;;;;;;5042782;28;20640;-64
2023/10/20 12:24:45;;;;;;;4.53;2.83;;;;;;;;;;5039915;28;20252;-64
2023/10/20 12:27:12;;;;;;;6.72;3.30;;;;;;;;;;5040921;28;20195;-65
2023/10/20 12:29:38;;;;;;;10.30;3.78;;;;;;;;;;5042682;28;20648;-64
2023/10/20 12:32:07;;;;;;;8.00;3.58;;;;;;;;;;5040992;28;20265;-64
2023/10/20 12:34:34;;;;;;;11.75;4.15;;;;;;;;;;5043456;28;20284;-64
2023/10/20 12:37:01;;;;;;;6.63;3.20;;;;;;;;;;5040153;28;20195;-63
2023/10/20 12:39:30;;;;;;;11.65;2.80;;;;;;;;;;5041456;28;20211;-63
2023/10/20 12:42:02;;;;;;;6.40;2.95;;;;;;;;;;5040884;28;20210;-64
2023/10/20 12:44:29;;;;;;;17.08;2.88;;;;;;;;;;5040835;28;20211;-64
2023/10/20 12:46:55;;;;;;;12.02;3.10;;;;;;;;;;5042570;28;20207;-63
2023/10/20 12:49:23;;;;;;;7.38;2.38;;;;;;;;;;5042591;28;20680;-64
2023/10/20 12:51:49;;;;;;;8.10;2.80;;;;;;;;;;5040192;28;21724;-63
2023/10/20 12:54:16;;;;;;;11.82;3.08;;;;;;;;;;5040515;28;20261;-65
2023/10/20 12:56:42;;;;;;;10.85;2.95;;;;;;;;;;5039639;28;20203;-63
2023/10/20 12:59:09;;;;;;;6.80;2.92;;;;;;;;;;5042618;28;20230;-64
2023/10/20 13:01:36;;;;;;;7.10;2.35;;;;;;;;;;5042498;28;20211;-62
2023/10/20 13:04:04;;;;;;;9.77;3.40;;;;;;;;;;5040749;28;20289;-64
2023/10/20 13:06:32;;;;;;;15.32;3.05;;;;;;;;;;5041456;28;20689;-63
2023/10/20 13:08:58;;;;;;;9.73;2.38;;;;;;;;;;5040407;28;20215;-63
2023/10/20 13:11:25;;;;;;;9.00;2.63;;;;;;;;;;5042179;28;20237;-63
2023/10/20 13:13:51;;;;;;;14.60;3.63;;;;;;;;;;5040441;28;20587;-63
2023/10/20 13:16:18;;;;;;;7.70;2.42;;;;;;;;;;5043143;28;20218;-63
2023/10/20 13:18:44;;;;;;;7.70;3.67;;;;;;;;;;5041661;28;20209;-64
2023/10/20 13:21:11;;;;;;;11.25;2.40;;;;;;;;;;5045504;28;20677;-64
2023/10/20 13:23:39;;;;;;;9.20;3.38;;;;;;;;;;5045164;28;20199;-63
2023/10/20 13:26:06;;;;;;;9.05;3.05;;;;;;;;;;5045790;28;20623;-63
2023/10/20 13:28:32;;;;;;;7.20;2.90;;;;;;;;;;5044851;28;20227;-63
2023/10/20 13:31:03;;;;;;;14.07;3.65;;;;;;;;;;5045839;28;20230;-63
2023/10/20 13:33:30;;;;;;;8.98;2.15;;;;;;;;;;5043997;28;20207;-63
2023/10/20 13:36:00;;;;;;;4.60;2.38;;;;;;;;;;5043053;28;20226;-63
2023/10/20 13:38:26;;;;;;;13.85;2.70;;;;;;;;;;5046305;28;20226;-63
2023/10/20 13:40:54;;;;;;;10.73;2.67;;;;;;;;;;5045915;28;20241;-64
2023/10/20 13:43:21;;;;;;;9.55;2.05;;;;;;;;;;5041530;28;20230;-64
2023/10/20 13:45:48;;;;;;;7.93;2.92;;;;;;;;;;5044800;28;20196;-63
2023/10/20 13:48:14;;;;;;;11.65;2.42;;;;;;;;;;5045406;28;20207;-63
2023/10/20 13:50:40;;;;;;;9.00;2.88;;;;;;;;;;5045257;28;20212;-64
2023/10/20 13:53:09;;;;;;;8.98;2.90;;;;;;;;;;5045053;28;20348;-63
2023/10/20 13:55:36;;;;;;;9.27;2.17;;;;;;;;;;5044945;28;20799;-64
2023/10/20 13:58:04;;;;;;;9.88;3.13;;;;;;;;;;5045054;28;20253;-63
2023/10/20 14:00:33;;;;;;;9.73;2.30;;;;;;;;;;5043766;28;20241;-63
2023/10/20 14:03:00;;;;;;;11.60;3.35;;;;;;;;;;5046121;28;20231;-63
2023/10/20 14:05:29;;;;;;;7.72;2.25;;;;;;;;;;5043943;28;20261;-63
2023/10/20 14:07:55;;;;;;;10.38;2.80;;;;;;;;;;5043446;28;20664;-63
2023/10/20 14:10:22;;;;;;;8.68;2.72;;;;;;;;;;5042650;28;20258;-64
2023/10/20 14:12:48;;;;;;;11.00;2.80;;;;;;;;;;5043826;28;20217;-64
2023/10/20 14:15:16;;;;;;;8.43;2.97;;;;;;;;;;5043688;28;20770;-63
2023/10/20 14:17:43;;;;;;;12.07;2.92;;;;;;;;;;5043958;28;20256;-64
2023/10/20 14:20:10;;;;;;;9.13;3.30;;;;;;;;;;5045364;28;20291;-64
2023/10/20 14:22:36;;;;;;;5.93;2.78;;;;;;;;;;5042866;28;20203;-64
2023/10/20 14:25:03;;;;;;;7.82;2.85;;;;;;;;;;5044148;28;20219;-64
2023/10/20 14:27:31;;;;;;;11.65;3.35;;;;;;;;;;5043634;28;20209;-63
2023/10/20 14:29:57;;;;;;;13.02;3.63;;;;;;;;;;5043217;28;20272;-63
2023/10/20 14:32:25;;;;;;;16.10;2.92;;;;;;;;;;5042693;28;20275;-64
2023/10/20 14:34:51;;;;;;;6.75;2.88;;;;;;;;;;5042746;28;20203;-63
2023/10/20 14:37:18;;;;;;;10.38;2.85;;;;;;;;;;5042888;28;20632;-64
2023/10/20 14:39:44;;;;;;;8.40;2.75;;;;;;;;;;5044388;28;20300;-63
2023/10/20 14:42:11;;;;;;;9.30;2.72;;;;;;;;;;5044224;28;20250;-65